createdAt,value
2018-06-15T00:02:18.950Z,17.50
2018-06-15T00:04:47.002Z,17.60
2018-06-15T00:07:15.127Z,17.60
2018-06-15T00:09:43.194Z,17.60
2018-06-15T00:12:11.274Z,17.50
2018-06-15T00:14:39.471Z,17.40
2018-06-15T00:17:07.619Z,17.40
2018-06-15T00:19:35.696Z,17.50
2018-06-15T00:22:03.811Z,17.50
2018-06-15T00:24:31.875Z,17.60
2018-06-15T00:26:59.990Z,17.60
2018-06-15T00:29:28.083Z,17.60
2018-06-15T00:31:56.153Z,18.70
2018-06-15T00:34:24.235Z,17.60
2018-06-15T00:36:52.296Z,17.70
2018-06-15T00:39:20.375Z,17.70
2018-06-15T00:41:48.469Z,17.70
2018-06-15T00:44:16.538Z,17.80
2018-06-15T00:46:44.582Z,17.80
2018-06-15T00:49:13.126Z,17.70
2018-06-15T00:51:41.198Z,17.80
2018-06-15T00:54:09.273Z,17.80
2018-06-15T00:56:48.947Z,17.70
2018-06-15T00:59:17.007Z,17.70
2018-06-15T01:01:45.056Z,17.70
2018-06-15T01:04:13.154Z,17.70
2018-06-15T01:06:41.218Z,17.70
2018-06-15T01:09:09.596Z,17.60
2018-06-15T01:11:37.827Z,17.60
2018-06-15T01:14:05.906Z,17.50
2018-06-15T01:16:34.023Z,17.50
2018-06-15T01:19:02.457Z,17.50
2018-06-15T01:21:30.719Z,17.40
2018-06-15T01:23:58.994Z,17.40
2018-06-15T01:26:27.065Z,17.40
2018-06-15T01:28:55.238Z,17.40
2018-06-15T01:31:23.310Z,17.40
2018-06-15T01:33:51.719Z,17.40
2018-06-15T01:36:19.834Z,17.40
2018-06-15T01:38:47.915Z,17.30
2018-06-15T01:41:16.031Z,17.30
2018-06-15T01:46:11.969Z,17.30
2018-06-15T01:48:40.070Z,17.30
2018-06-15T01:51:08.143Z,17.30
2018-06-15T01:53:36.195Z,17.30
2018-06-15T01:56:04.250Z,17.30
2018-06-15T02:01:00.248Z,17.30
2018-06-15T02:03:28.315Z,17.30
2018-06-15T02:05:56.383Z,17.30
2018-06-15T02:08:24.435Z,17.30
2018-06-15T02:10:52.504Z,17.20
2018-06-15T02:13:20.654Z,17.20
2018-06-15T02:15:48.775Z,17.20
2018-06-15T02:18:16.854Z,17.20
2018-06-15T02:20:44.968Z,17.10
2018-06-15T02:23:13.032Z,17.10
2018-06-15T02:25:41.102Z,17.20
2018-06-15T02:28:09.148Z,17.10
2018-06-15T02:30:37.222Z,17.10
2018-06-15T02:33:05.293Z,17.10
2018-06-15T02:35:33.482Z,17.10
2018-06-15T02:38:01.569Z,17.00
2018-06-15T02:40:29.665Z,17.00
2018-06-15T02:45:25.712Z,17.00
2018-06-15T02:47:53.731Z,16.90
2018-06-15T02:50:21.841Z,17.00
2018-06-15T02:52:49.959Z,17.00
2018-06-15T02:55:18.059Z,17.00
2018-06-15T02:57:46.136Z,17.00
2018-06-15T03:00:14.295Z,17.10
2018-06-15T03:02:42.400Z,17.10
2018-06-15T03:05:10.536Z,17.10
2018-06-15T03:07:38.671Z,17.10
2018-06-15T03:10:06.779Z,17.10
2018-06-15T03:12:34.853Z,17.10
2018-06-15T03:15:02.960Z,17.10
2018-06-15T03:17:31.024Z,17.10
2018-06-15T03:19:59.087Z,17.10
2018-06-15T03:22:27.163Z,17.10
2018-06-15T03:24:55.243Z,17.00
2018-06-15T03:27:23.333Z,17.00
2018-06-15T03:29:51.416Z,17.00
2018-06-15T03:32:19.515Z,17.00
2018-06-15T03:34:47.578Z,17.10
2018-06-15T03:37:15.643Z,17.00
2018-06-15T03:42:11.590Z,17.00
2018-06-15T03:44:39.650Z,17.10
2018-06-15T03:47:07.726Z,17.00
2018-06-15T03:49:35.797Z,17.00
2018-06-15T03:52:03.892Z,17.10
2018-06-15T03:56:59.951Z,17.20
2018-06-15T03:59:28.075Z,17.10
2018-06-15T04:01:56.160Z,17.20
2018-06-15T04:04:24.224Z,17.20
2018-06-15T04:06:52.385Z,17.20
2018-06-15T04:09:20.449Z,17.20
2018-06-15T04:11:48.523Z,17.30
2018-06-15T04:14:16.600Z,17.30
2018-06-15T04:16:44.768Z,17.20
2018-06-15T04:19:12.822Z,17.20
2018-06-15T04:21:40.931Z,17.10
2018-06-15T04:24:09.111Z,17.20
2018-06-15T04:26:37.204Z,17.30
2018-06-15T04:29:05.298Z,17.40
2018-06-15T04:31:33.441Z,17.40
2018-06-15T04:34:01.520Z,17.50
2018-06-15T04:36:29.599Z,17.60
2018-06-15T04:38:57.692Z,17.60
2018-06-15T04:44:00.247Z,17.70
2018-06-15T04:46:28.354Z,17.70
2018-06-15T04:51:24.343Z,17.80
2018-06-15T04:53:52.474Z,17.90
2018-06-15T04:58:48.504Z,17.80
2018-06-15T05:01:16.592Z,17.80
2018-06-15T05:06:12.634Z,17.90
2018-06-15T05:08:40.790Z,17.90
2018-06-15T05:11:08.925Z,17.90
2018-06-15T05:13:37.019Z,18.00
2018-06-15T05:16:05.273Z,18.10
2018-06-15T05:18:33.345Z,18.10
2018-06-15T05:21:01.427Z,18.20
2018-06-15T05:23:29.751Z,18.20
2018-06-15T05:25:57.868Z,18.30
2018-06-15T05:28:25.941Z,18.40
2018-06-15T05:30:54.036Z,18.50
2018-06-15T05:33:22.171Z,18.50
2018-06-15T05:35:50.341Z,18.50
2018-06-15T05:38:18.618Z,18.50
2018-06-15T05:43:14.558Z,18.70
2018-06-15T05:45:42.686Z,18.70
2018-06-15T05:48:10.811Z,18.70
2018-06-15T05:50:38.922Z,18.70
2018-06-15T05:53:07.034Z,18.60
2018-06-15T05:55:35.158Z,18.60
2018-06-15T05:58:03.247Z,18.60
2018-06-15T06:00:31.347Z,18.50
2018-06-15T06:02:59.502Z,18.50
2018-06-15T06:05:27.700Z,18.60
2018-06-15T06:07:55.856Z,18.60
2018-06-15T06:10:24.171Z,18.70
2018-06-15T06:12:52.478Z,18.80
2018-06-15T06:15:20.578Z,18.90
2018-06-15T06:17:48.830Z,18.90
2018-06-15T06:20:16.929Z,18.90
2018-06-15T06:22:44.999Z,18.90
2018-06-15T06:25:13.085Z,18.80
2018-06-15T06:27:41.201Z,19.00
2018-06-15T06:30:09.654Z,19.00
2018-06-15T06:32:37.976Z,19.00
2018-06-15T06:35:06.127Z,19.00
2018-06-15T06:37:35.103Z,19.00
2018-06-15T06:40:03.697Z,19.00
2018-06-15T06:42:32.718Z,19.10
2018-06-15T06:45:00.802Z,19.10
2018-06-15T06:47:29.332Z,19.10
2018-06-15T06:49:59.008Z,19.10
2018-06-15T06:52:27.426Z,19.20
2018-06-15T06:54:57.014Z,19.20
2018-06-15T06:57:25.123Z,19.30
2018-06-15T06:59:53.183Z,19.30
2018-06-15T07:02:21.288Z,19.40
2018-06-15T07:04:49.396Z,19.40
2018-06-15T07:07:17.471Z,19.50
2018-06-15T07:09:45.566Z,19.60
2018-06-15T07:12:13.651Z,18.80
2018-06-15T07:14:41.757Z,19.70
2018-06-15T07:17:09.838Z,19.70
2018-06-15T07:19:37.921Z,19.60
2018-06-15T07:22:05.979Z,19.60
2018-06-15T07:24:34.074Z,19.80
2018-06-15T07:27:02.188Z,19.90
2018-06-15T07:29:30.289Z,20.00
2018-06-15T07:31:58.332Z,20.00
2018-06-15T07:34:26.514Z,20.00
2018-06-15T07:36:54.580Z,20.00
2018-06-15T07:39:22.712Z,20.00
2018-06-15T07:41:50.795Z,19.80
2018-06-15T07:44:18.877Z,19.80
2018-06-15T07:46:46.952Z,20.10
2018-06-15T07:49:15.055Z,20.40
2018-06-15T07:51:43.124Z,20.50
2018-06-15T07:54:11.207Z,20.70
2018-06-15T07:56:39.284Z,20.80
2018-06-15T07:59:07.606Z,20.90
2018-06-15T08:01:35.689Z,20.90
2018-06-15T08:04:06.178Z,20.80
2018-06-15T08:06:34.311Z,20.80
2018-06-15T08:09:02.368Z,20.70
2018-06-15T08:11:30.826Z,20.50
2018-06-15T08:13:59.097Z,20.50
2018-06-15T08:18:55.135Z,20.30
2018-06-15T08:21:23.265Z,20.40
2018-06-15T08:23:51.329Z,20.80
2018-06-15T08:26:19.518Z,21.00
2018-06-15T08:28:47.577Z,21.10
2018-06-15T08:31:15.931Z,20.90
2018-06-15T08:33:44.243Z,20.90
2018-06-15T08:36:12.318Z,20.90
2018-06-15T08:38:40.403Z,20.90
2018-06-15T08:41:08.497Z,21.00
2018-06-15T08:43:36.672Z,21.30
2018-06-15T08:46:04.813Z,21.30
2018-06-15T08:48:32.891Z,21.40
2018-06-15T08:51:00.966Z,21.40
2018-06-15T08:53:29.087Z,21.70
2018-06-15T08:55:57.215Z,21.90
2018-06-15T08:58:25.282Z,22.00
2018-06-15T09:00:53.362Z,22.10
2018-06-15T09:03:21.435Z,22.30
2018-06-15T09:05:49.544Z,22.50
2018-06-15T09:08:17.696Z,22.60
2018-06-15T09:10:45.744Z,22.30
2018-06-15T09:13:13.923Z,22.20
2018-06-15T09:15:42.058Z,22.30
2018-06-15T09:18:10.119Z,22.60
2018-06-15T09:20:38.255Z,22.70
2018-06-15T09:23:06.518Z,22.60
2018-06-15T09:25:34.746Z,22.30
2018-06-15T09:28:02.875Z,22.00
2018-06-15T09:30:30.957Z,22.00
2018-06-15T09:32:59.074Z,22.40
2018-06-15T09:35:27.142Z,22.50
2018-06-15T09:37:55.214Z,22.40
2018-06-15T09:42:51.243Z,22.20
2018-06-15T09:45:19.321Z,22.30
2018-06-15T09:47:47.433Z,22.30
2018-06-15T09:50:15.503Z,22.40
2018-06-15T09:52:43.604Z,22.40
2018-06-15T09:55:11.727Z,22.30
2018-06-15T09:57:39.827Z,22.30
2018-06-15T10:00:07.944Z,22.40
2018-06-15T10:02:36.021Z,22.50
2018-06-15T10:05:04.143Z,22.60
2018-06-15T10:07:32.255Z,22.70
2018-06-15T10:10:00.312Z,22.50
2018-06-15T10:12:28.388Z,22.50
2018-06-15T10:14:56.467Z,22.80
2018-06-15T10:17:24.565Z,23.00
2018-06-15T10:19:52.657Z,23.00
2018-06-15T10:22:20.748Z,23.10
2018-06-15T10:24:48.810Z,22.60
2018-06-15T10:27:16.952Z,22.50
2018-06-15T10:29:45.031Z,22.70
2018-06-15T10:32:13.168Z,22.80
2018-06-15T10:34:41.280Z,22.90
2018-06-15T10:37:09.419Z,22.70
2018-06-15T10:39:37.548Z,22.70
2018-06-15T10:42:05.576Z,22.70
2018-06-15T10:44:33.676Z,22.70
2018-06-15T10:47:01.723Z,22.70
2018-06-15T10:49:29.819Z,22.90
2018-06-15T10:51:57.931Z,22.60
2018-06-15T10:54:26.019Z,22.40
2018-06-15T10:56:54.102Z,22.50
2018-06-15T10:59:22.173Z,22.60
2018-06-15T11:01:50.219Z,22.40
2018-06-15T11:04:18.330Z,22.50
2018-06-15T11:06:46.389Z,22.60
2018-06-15T11:09:14.475Z,22.70
2018-06-15T11:11:42.553Z,22.70
2018-06-15T11:14:10.660Z,22.70
2018-06-15T11:16:38.734Z,22.80
2018-06-15T11:19:06.807Z,23.00
2018-06-15T11:21:34.881Z,23.00
2018-06-15T11:24:03.027Z,23.10
2018-06-15T11:26:31.079Z,23.20
2018-06-15T11:28:59.184Z,23.20
2018-06-15T11:31:27.286Z,23.00
2018-06-15T11:38:51.120Z,23.00
2018-06-15T11:41:19.314Z,23.00
2018-06-15T11:43:47.323Z,23.00
2018-06-15T11:46:15.416Z,23.00
2018-06-15T11:48:43.504Z,22.80
2018-06-15T11:51:11.588Z,22.90
2018-06-15T11:53:39.714Z,23.00
2018-06-15T11:56:07.919Z,23.10
2018-06-15T11:58:35.988Z,23.10
2018-06-15T12:01:04.128Z,23.10
2018-06-15T12:03:32.213Z,23.00
2018-06-15T12:06:00.307Z,22.90
2018-06-15T12:08:28.441Z,22.60
2018-06-15T12:10:56.553Z,22.70
2018-06-15T12:13:24.618Z,22.90
2018-06-15T12:15:52.706Z,23.20
2018-06-15T12:18:20.763Z,22.90
2018-06-15T12:20:48.843Z,23.10
2018-06-15T12:23:16.901Z,23.20
2018-06-15T12:25:44.992Z,23.10
2018-06-15T12:28:13.071Z,22.90
2018-06-15T12:30:41.179Z,23.00
2018-06-15T12:33:09.287Z,22.80
2018-06-15T12:35:37.384Z,23.10
2018-06-15T12:40:33.585Z,23.30
2018-06-15T12:43:01.700Z,23.40
2018-06-15T12:45:29.792Z,23.20
2018-06-15T12:47:57.906Z,23.10
2018-06-15T12:50:26.045Z,22.90
2018-06-15T12:52:54.139Z,22.80
2018-06-15T12:55:22.196Z,22.70
2018-06-15T12:57:50.285Z,22.70
2018-06-15T13:00:18.385Z,22.90
2018-06-15T13:02:46.483Z,23.00
2018-06-15T13:05:14.642Z,23.10
2018-06-15T13:07:42.760Z,23.10
2018-06-15T13:10:10.883Z,23.10
2018-06-15T13:12:38.993Z,23.20
2018-06-15T13:17:35.128Z,23.30
2018-06-15T13:20:03.275Z,23.40
2018-06-15T13:22:31.340Z,23.50
2018-06-15T13:24:59.445Z,23.60
2018-06-15T13:27:27.572Z,23.50
2018-06-15T13:29:55.703Z,23.40
2018-06-15T13:32:23.818Z,23.60
2018-06-15T13:34:51.887Z,23.30
2018-06-15T13:37:20.018Z,23.00
2018-06-15T13:39:48.133Z,23.20
2018-06-15T13:42:16.235Z,23.30
2018-06-15T13:44:44.273Z,23.40
2018-06-15T13:47:12.380Z,23.50
2018-06-15T13:49:40.418Z,23.40
2018-06-15T13:52:08.479Z,23.40
2018-06-15T13:54:36.537Z,23.40
2018-06-15T13:57:04.630Z,22.90
2018-06-15T13:59:32.695Z,22.60
2018-06-15T14:04:28.737Z,22.70
2018-06-15T14:06:56.926Z,22.80
2018-06-15T14:09:25.031Z,22.80
2018-06-15T14:11:53.138Z,22.90
2018-06-15T14:14:21.252Z,22.90
2018-06-15T14:16:49.419Z,22.90
2018-06-15T14:19:17.595Z,22.90
2018-06-15T14:21:45.730Z,22.80
2018-06-15T14:24:13.819Z,22.60
2018-06-15T14:26:41.934Z,22.50
2018-06-15T14:29:10.044Z,22.40
2018-06-15T14:31:38.113Z,22.40
2018-06-15T14:34:06.202Z,22.50
2018-06-15T14:36:34.322Z,22.50
2018-06-15T14:39:02.435Z,22.60
2018-06-15T14:41:30.509Z,22.80
2018-06-15T14:43:58.600Z,22.90
2018-06-15T14:46:26.662Z,23.10
2018-06-15T14:48:54.719Z,23.20
2018-06-15T14:51:22.824Z,23.10
2018-06-15T14:53:50.918Z,23.00
2018-06-15T14:56:19.012Z,23.00
2018-06-15T14:58:47.070Z,22.90
2018-06-15T15:01:15.188Z,23.00
2018-06-15T15:03:43.258Z,23.00
2018-06-15T15:06:11.359Z,23.00
2018-06-15T15:08:39.457Z,23.00
2018-06-15T15:11:07.534Z,23.00
2018-06-15T15:13:35.628Z,23.00
2018-06-15T15:16:03.723Z,23.00
2018-06-15T15:18:31.790Z,23.00
2018-06-15T15:20:59.866Z,22.90
2018-06-15T15:23:28.016Z,23.00
2018-06-15T15:25:56.128Z,23.10
2018-06-15T15:28:24.230Z,23.10
2018-06-15T15:30:52.407Z,23.10
2018-06-15T15:33:20.504Z,23.20
2018-06-15T15:35:48.627Z,23.00
2018-06-15T15:38:16.754Z,23.00
2018-06-15T15:43:12.689Z,22.80
2018-06-15T15:45:40.780Z,22.80
2018-06-15T15:48:08.820Z,22.60
2018-06-15T15:50:36.911Z,22.50
2018-06-15T15:53:05.792Z,22.50
2018-06-15T15:55:33.916Z,22.40
2018-06-15T15:58:01.977Z,22.40
2018-06-15T16:00:30.065Z,22.30
2018-06-15T16:02:58.135Z,22.30
2018-06-15T16:05:26.241Z,22.20
2018-06-15T16:07:54.336Z,22.10
2018-06-15T16:10:22.518Z,21.90
2018-06-15T16:15:18.467Z,21.80
2018-06-15T16:17:46.542Z,21.80
2018-06-15T16:20:14.717Z,21.70
2018-06-15T16:22:42.779Z,21.80
2018-06-15T16:25:10.902Z,21.80
2018-06-15T16:27:38.995Z,21.90
2018-06-15T16:30:07.102Z,21.80
2018-06-15T16:32:35.164Z,21.80
2018-06-15T16:35:03.267Z,21.80
2018-06-15T16:37:31.415Z,21.80
2018-06-15T16:39:59.497Z,21.70
2018-06-15T16:42:27.576Z,21.80
2018-06-15T16:44:55.866Z,21.80
2018-06-15T16:47:23.945Z,21.80
2018-06-15T16:49:52.067Z,21.90
2018-06-15T16:52:20.140Z,21.80
2018-06-15T16:54:48.368Z,21.80
2018-06-15T16:57:16.427Z,21.80
2018-06-15T16:59:44.549Z,21.90
2018-06-15T17:02:12.639Z,21.80
2018-06-15T17:04:40.744Z,21.80
2018-06-15T17:07:08.868Z,21.80
2018-06-15T17:09:37.014Z,21.80
2018-06-15T17:12:05.108Z,21.70
2018-06-15T17:14:33.195Z,21.70
2018-06-15T17:17:01.288Z,21.70
2018-06-15T17:19:29.401Z,21.70
2018-06-15T17:21:57.697Z,21.60
2018-06-15T17:24:25.754Z,21.60
2018-06-15T17:26:53.827Z,21.50
2018-06-15T17:29:21.874Z,21.60
2018-06-15T17:31:49.995Z,21.60
2018-06-15T17:34:18.082Z,21.60
2018-06-15T17:36:46.436Z,21.60
2018-06-15T17:39:14.678Z,21.70
2018-06-15T17:41:47.000Z,21.60
2018-06-15T17:44:15.091Z,21.50
2018-06-15T17:46:43.182Z,21.50
2018-06-15T17:49:11.373Z,21.50
2018-06-15T17:51:39.446Z,21.60
2018-06-15T17:54:07.779Z,21.50
2018-06-15T17:56:35.857Z,21.60
2018-06-15T17:59:03.923Z,21.60
2018-06-15T18:01:32.135Z,21.60
2018-06-15T18:04:00.206Z,21.60
2018-06-15T18:08:56.280Z,21.50
2018-06-15T18:11:24.360Z,21.60
2018-06-15T18:13:52.489Z,21.50
2018-06-15T18:16:20.591Z,21.50
2018-06-15T18:18:48.681Z,21.60
2018-06-15T18:21:16.739Z,21.60
2018-06-15T18:23:44.860Z,21.50
2018-06-15T18:26:12.963Z,21.50
2018-06-15T18:28:41.248Z,21.50
2018-06-15T18:31:09.477Z,21.30
2018-06-15T18:33:37.577Z,21.40
2018-06-15T18:36:05.639Z,21.30
2018-06-15T18:38:33.857Z,21.40
2018-06-15T18:41:01.910Z,21.40
2018-06-15T18:43:30.008Z,21.30
2018-06-15T18:45:58.108Z,21.30
2018-06-15T18:48:26.214Z,21.30
2018-06-15T18:50:54.304Z,21.20
2018-06-15T18:53:22.372Z,21.10
2018-06-15T18:55:50.447Z,21.20
2018-06-15T18:58:18.600Z,21.20
2018-06-15T19:00:46.684Z,21.10
2018-06-15T19:03:14.776Z,21.00
2018-06-15T19:05:43.270Z,21.10
2018-06-15T19:08:11.332Z,21.10
2018-06-15T19:10:39.676Z,21.00
2018-06-15T19:13:07.787Z,21.00
2018-06-15T19:18:03.702Z,21.00
2018-06-15T19:20:31.819Z,21.00
2018-06-15T19:25:27.891Z,21.10
2018-06-15T19:27:55.989Z,21.00
2018-06-15T19:30:24.063Z,21.00
2018-06-15T19:32:52.135Z,21.00
2018-06-15T19:35:20.218Z,20.90
2018-06-15T19:37:48.310Z,20.90
2018-06-15T19:40:16.377Z,20.90
2018-06-15T19:42:44.447Z,20.90
2018-06-15T19:45:12.569Z,20.80
2018-06-15T19:47:40.652Z,20.70
2018-06-15T19:50:08.699Z,20.70
2018-06-15T19:52:36.784Z,20.60
2018-06-15T19:55:04.972Z,20.50
2018-06-15T19:57:33.041Z,20.50
2018-06-15T20:00:01.123Z,20.40
2018-06-15T20:02:29.219Z,20.50
2018-06-15T20:04:57.295Z,20.50
2018-06-15T20:07:25.398Z,20.60
2018-06-15T20:09:53.461Z,20.60
2018-06-15T20:12:21.498Z,20.70
2018-06-15T20:14:49.568Z,20.70
2018-06-15T20:17:17.648Z,20.70
2018-06-15T20:19:45.726Z,20.80
2018-06-15T20:22:13.809Z,20.80
2018-06-15T20:24:41.894Z,20.80
2018-06-15T20:27:09.938Z,20.80
2018-06-15T20:29:38.172Z,20.70
2018-06-15T20:34:34.243Z,20.50
2018-06-15T20:37:02.350Z,20.40
2018-06-15T20:39:30.421Z,20.40
2018-06-15T20:42:01.155Z,20.30
2018-06-15T20:44:29.268Z,20.30
2018-06-15T20:46:57.338Z,20.20
2018-06-15T20:49:25.419Z,20.20
2018-06-15T20:51:53.477Z,20.20
2018-06-15T20:54:21.545Z,20.30
2018-06-15T20:56:49.618Z,20.30
2018-06-15T20:59:17.752Z,20.30
2018-06-15T21:01:45.850Z,20.30
2018-06-15T21:04:13.911Z,20.30
2018-06-15T21:06:42.033Z,20.30
2018-06-15T21:09:10.518Z,20.30
2018-06-15T21:11:38.636Z,20.30
2018-06-15T21:14:06.874Z,20.20
2018-06-15T21:16:34.964Z,20.20
2018-06-15T21:19:03.059Z,20.10
2018-06-15T21:21:31.150Z,20.00
2018-06-15T21:23:59.594Z,20.00
2018-06-15T21:26:27.682Z,19.90
2018-06-15T21:28:56.020Z,19.90
2018-06-15T21:33:52.072Z,19.80
2018-06-15T21:36:20.231Z,19.80
2018-06-15T21:38:48.321Z,19.80
2018-06-15T21:41:16.399Z,19.70
2018-06-15T21:43:44.494Z,19.80
2018-06-15T21:46:12.606Z,19.80
2018-06-15T21:48:40.778Z,19.80
2018-06-15T21:51:08.841Z,19.80
2018-06-15T21:53:36.891Z,19.80
2018-06-15T21:56:04.982Z,19.80
2018-06-15T21:58:33.053Z,19.80
2018-06-15T22:01:01.128Z,19.70
2018-06-15T22:03:29.195Z,19.70
2018-06-15T22:05:57.304Z,19.70
2018-06-15T22:08:25.372Z,19.80
2018-06-15T22:10:53.490Z,19.70
2018-06-15T22:13:21.617Z,19.70
2018-06-15T22:15:49.804Z,19.70
2018-06-15T22:18:17.918Z,19.70
2018-06-15T22:20:45.996Z,19.70
2018-06-15T22:23:14.071Z,19.70
2018-06-15T22:25:42.212Z,19.80
2018-06-15T22:28:10.283Z,19.80
2018-06-15T22:30:38.348Z,19.80
2018-06-15T22:35:34.409Z,19.80
2018-06-15T22:38:02.482Z,19.70
2018-06-15T22:40:30.558Z,19.80
2018-06-15T22:42:58.626Z,19.80
2018-06-15T22:45:26.676Z,19.70
2018-06-15T22:50:22.620Z,19.50
2018-06-15T22:52:50.708Z,19.50
2018-06-15T22:55:18.784Z,19.50
2018-06-15T22:57:46.891Z,19.60
2018-06-15T23:00:16.988Z,19.60
2018-06-15T23:02:45.215Z,19.60
2018-06-15T23:05:13.263Z,19.60
2018-06-15T23:07:41.506Z,19.50
2018-06-15T23:10:09.573Z,19.50
2018-06-15T23:12:37.679Z,19.50
2018-06-15T23:15:05.722Z,19.50
2018-06-15T23:17:33.953Z,19.40
2018-06-15T23:20:02.020Z,19.40
2018-06-15T23:22:30.093Z,19.40
2018-06-15T23:24:58.241Z,19.40
2018-06-15T23:27:26.295Z,19.40
2018-06-15T23:29:54.660Z,19.40
2018-06-15T23:32:22.847Z,19.40
2018-06-15T23:34:51.233Z,19.40
2018-06-15T23:37:19.302Z,19.40
2018-06-15T23:39:47.405Z,19.40
2018-06-15T23:42:15.470Z,19.40
2018-06-15T23:44:43.674Z,19.40
2018-06-15T23:47:11.741Z,19.30
2018-06-15T23:49:39.802Z,19.20
2018-06-15T23:52:07.855Z,19.30
2018-06-15T23:54:35.963Z,19.30
2018-06-15T23:57:04.056Z,19.30
2018-06-15T23:59:32.136Z,19.30
